Time;durP1;ratioP1;P1;durP2;ratioP2;P2;SDS_P1;SDS_P2;PMS_P1;PMS_P2;Temp;Humidity;BMP_temperature;BMP_pressure;BME280_temperature;BME280_humidity;BME280_pressure;Samples;Min_cycle;Max_cycle;Signal;HPM_P1;HPM_P2
2021/09/13 00:00:06;;;;;;;2.50;2.30;;;23.00;44.10;;;;;;4793702;29;20086;-73
2021/09/13 00:02:34;;;;;;;;;;;23.10;44.20;;;;;;4779019;29;20205;-73
2021/09/13 00:05:01;;;;;;;3.08;2.25;;;23.00;44.70;;;;;;4790733;29;20287;-74
2021/09/13 00:07:28;;;;;;;2.05;1.95;;;23.00;44.10;;;;;;4794651;29;20154;-73
2021/09/13 00:09:55;;;;;;;2.22;1.85;;;23.10;44.20;;;;;;4793141;29;20264;-73
2021/09/13 00:12:22;;;;;;;2.05;1.95;;;23.10;44.20;;;;;;4786213;29;20154;-72
2021/09/13 00:14:49;;;;;;;2.60;2.40;;;23.10;44.20;;;;;;4791341;29;20213;-73
2021/09/13 00:17:16;;;;;;;4.10;2.53;;;23.10;44.20;;;;;;4793694;29;20051;-72
2021/09/13 00:19:43;;;;;;;2.22;2.10;;;23.10;44.20;;;;;;4793186;29;20530;-73
2021/09/13 00:22:10;;;;;;;2.50;2.30;;;23.00;44.20;;;;;;4786145;29;20142;-70
2021/09/13 00:24:37;;;;;;;1.95;1.80;;;23.00;44.20;;;;;;4790960;29;20079;-73
2021/09/13 00:27:05;;;;;;;2.30;2.13;;;23.10;44.30;;;;;;4794500;29;20393;-74
2021/09/13 00:29:32;;;;;;;2.13;2.03;;;23.00;44.20;;;;;;4790637;29;20082;-73
2021/09/13 00:31:59;;;;;;;1.70;1.60;;;23.10;44.30;;;;;;4788566;29;20580;-70
2021/09/13 00:34:28;;;;;;;3.10;2.30;;;23.10;44.30;;;;;;4792890;29;20074;-71
2021/09/13 00:36:55;;;;;;;3.10;2.50;;;23.00;44.30;;;;;;4790560;29;20498;-73
2021/09/13 00:39:22;;;;;;;1.90;1.80;;;23.00;44.30;;;;;;4793141;29;20131;-73
2021/09/13 00:41:49;;;;;;;2.22;2.10;;;23.10;44.30;;;;;;4789412;29;20078;-73
2021/09/13 00:44:17;;;;;;;2.53;2.33;;;23.00;44.30;;;;;;4788001;29;20140;-73
2021/09/13 00:46:44;;;;;;;2.95;2.10;;;23.00;44.30;;;;;;4793011;29;20061;-73
2021/09/13 00:49:11;;;;;;;2.40;1.90;;;23.00;44.30;;;;;;4794843;29;20391;-73
2021/09/13 00:51:39;;;;;;;2.50;2.30;;;23.00;44.30;;;;;;4788812;29;20059;-73
2021/09/13 00:54:07;;;;;;;2.60;2.40;;;23.00;44.30;;;;;;4787857;29;20089;-73
2021/09/13 00:56:35;;;;;;;2.20;2.00;;;23.00;44.40;;;;;;4793581;29;20081;-73
2021/09/13 00:59:02;;;;;;;2.33;2.13;;;23.00;44.40;;;;;;4794257;29;20413;-73
2021/09/13 01:01:29;;;;;;;2.22;2.05;;;23.00;44.40;;;;;;4787944;29;20053;-70
2021/09/13 01:03:57;;;;;;;2.30;2.10;;;23.00;44.40;;;;;;4784392;29;20079;-70
2021/09/13 01:06:24;;;;;;;2.30;1.98;;;23.00;44.40;;;;;;4784131;29;20618;-73
2021/09/13 01:08:52;;;;;;;2.60;2.38;;;23.00;44.40;;;;;;4784801;29;20594;-72
2021/09/13 01:11:20;;;;;;;2.15;1.95;;;23.00;44.40;;;;;;4783052;29;20138;-72
2021/09/13 01:13:48;;;;;;;2.25;1.80;;;23.00;44.50;;;;;;4777898;30;20063;-73
2021/09/13 01:16:15;;;;;;;2.13;1.90;;;23.00;44.50;;;;;;4784677;29;20480;-73
2021/09/13 01:18:42;;;;;;;1.60;1.50;;;22.90;44.40;;;;;;4783405;30;20116;-73
2021/09/13 01:21:09;;;;;;;2.17;2.08;;;22.90;44.40;;;;;;4783496;29;20115;-73
2021/09/13 01:23:37;;;;;;;2.05;1.92;;;22.90;44.50;;;;;;4775744;29;20051;-72
2021/09/13 01:26:04;;;;;;;2.65;2.10;;;22.90;44.50;;;;;;4782912;30;20134;-73
2021/09/13 01:28:32;;;;;;;3.60;2.42;;;22.90;44.50;;;;;;4784294;29;20138;-73
2021/09/13 01:31:01;;;;;;;2.65;2.45;;;22.90;44.50;;;;;;4784372;29;20058;-73
2021/09/13 01:33:28;;;;;;;2.08;1.98;;;22.90;44.50;;;;;;4773791;29;20113;-73
2021/09/13 01:35:55;;;;;;;1.80;1.70;;;22.90;44.50;;;;;;4784573;29;20299;-73
2021/09/13 01:38:25;;;;;;;2.47;2.25;;;22.90;44.50;;;;;;4783785;29;20051;-71
2021/09/13 01:40:52;;;;;;;;;;;22.90;44.50;;;;;;4785378;29;20081;-72
2021/09/13 01:43:20;;;;;;;2.28;2.08;;;23.00;44.70;;;;;;4773621;29;20093;-73
2021/09/13 01:45:47;;;;;;;3.20;1.85;;;22.90;44.60;;;;;;4784603;29;20142;-73
2021/09/13 01:48:14;;;;;;;1.88;1.77;;;22.90;44.60;;;;;;4784309;29;20063;-73
2021/09/13 01:50:42;;;;;;;4.65;2.22;;;22.90;44.60;;;;;;4783591;30;20521;-73
2021/09/13 01:53:09;;;;;;;2.33;2.13;;;22.90;44.60;;;;;;4773509;29;20149;-71
2021/09/13 01:55:36;;;;;;;1.70;1.60;;;22.90;44.70;;;;;;4784465;29;20130;-73
2021/09/13 01:58:03;;;;;;;1.92;1.83;;;22.90;44.70;;;;;;4783803;29;20312;-73
2021/09/13 02:00:30;;;;;;;2.33;2.13;;;22.90;44.70;;;;;;4784381;29;20130;-74
2021/09/13 02:02:57;;;;;;;2.72;2.40;;;22.90;44.70;;;;;;4772305;29;20087;-73
2021/09/13 02:05:24;;;;;;;1.85;1.75;;;22.90;44.70;;;;;;4783712;29;20043;-73
2021/09/13 02:07:52;;;;;;;2.40;2.20;;;22.90;44.70;;;;;;4783611;29;20055;-73
2021/09/13 02:10:19;;;;;;;2.08;1.98;;;22.90;44.70;;;;;;4783706;29;20063;-73
2021/09/13 02:12:46;;;;;;;1.98;1.77;;;22.90;44.80;;;;;;4774620;29;20091;-73
2021/09/13 02:15:14;;;;;;;2.00;1.90;;;22.90;44.70;;;;;;4770978;29;20060;-73
2021/09/13 02:17:41;;;;;;;1.95;1.85;;;22.90;44.70;;;;;;4764985;30;20056;-73
2021/09/13 02:20:08;;;;;;;2.72;2.47;;;22.90;44.70;;;;;;4766125;30;20155;-73
2021/09/13 02:22:35;;;;;;;2.30;1.90;;;22.90;44.70;;;;;;4765303;30;20353;-71
2021/09/13 02:25:03;;;;;;;2.30;2.05;;;22.90;44.70;;;;;;4781383;30;20565;-73
2021/09/13 02:27:30;;;;;;;2.08;1.95;;;22.90;44.70;;;;;;4782985;29;20062;-73
2021/09/13 02:29:57;;;;;;;2.30;2.10;;;22.90;44.70;;;;;;4783432;29;20055;-73
2021/09/13 02:32:24;;;;;;;2.28;2.08;;;22.90;44.70;;;;;;4775735;29;20066;-70
2021/09/13 02:34:51;;;;;;;2.10;1.90;;;22.90;44.70;;;;;;4781898;30;20729;-73
2021/09/13 02:37:18;;;;;;;2.05;1.85;;;22.90;44.80;;;;;;4788091;29;20142;-73
2021/09/13 02:39:45;;;;;;;1.80;1.70;;;22.90;44.80;;;;;;4786220;29;20098;-73
2021/09/13 02:42:12;;;;;;;2.17;2.00;;;22.90;44.80;;;;;;4775661;29;20484;-73
2021/09/13 02:44:39;;;;;;;2.03;1.80;;;22.90;44.80;;;;;;4784514;29;20104;-72
2021/09/13 02:47:07;;;;;;;2.40;2.20;;;22.90;44.90;;;;;;4785935;29;20077;-73
2021/09/13 02:49:34;;;;;;;2.03;1.83;;;22.80;44.90;;;;;;4787775;29;20212;-73
2021/09/13 02:52:01;;;;;;;1.90;1.80;;;22.80;44.90;;;;;;4782887;29;20178;-70
2021/09/13 02:54:28;;;;;;;1.90;1.80;;;22.90;45.00;;;;;;4780992;29;20065;-73
2021/09/13 02:56:55;;;;;;;2.15;2.05;;;22.80;44.90;;;;;;4783349;29;20521;-73
2021/09/13 02:59:22;;;;;;;2.05;1.95;;;22.80;44.90;;;;;;4783180;29;20309;-73
2021/09/13 03:01:49;;;;;;;2.20;2.00;;;22.90;45.00;;;;;;4779125;29;20061;-73
2021/09/13 03:04:16;;;;;;;1.80;1.70;;;22.90;45.00;;;;;;4773099;30;20403;-73
2021/09/13 03:06:43;;;;;;;2.08;1.80;;;22.90;45.00;;;;;;4783612;29;20498;-73
2021/09/13 03:09:10;;;;;;;2.20;2.00;;;22.90;45.00;;;;;;4783954;30;20083;-72
2021/09/13 03:11:38;;;;;;;2.03;1.83;;;22.90;44.90;;;;;;4779600;29;20150;-71
2021/09/13 03:14:05;;;;;;;2.00;1.90;;;22.80;44.90;;;;;;4778519;30;20055;-72
2021/09/13 03:16:32;;;;;;;2.63;1.77;;;22.80;44.90;;;;;;4784337;29;20059;-72
2021/09/13 03:18:59;;;;;;;1.90;1.80;;;22.80;44.90;;;;;;4784201;29;20051;-72
2021/09/13 03:21:26;;;;;;;2.22;2.03;;;22.80;45.00;;;;;;4780834;29;20113;-71
2021/09/13 03:23:53;;;;;;;1.95;1.85;;;22.80;45.00;;;;;;4775005;29;20147;-70
2021/09/13 03:26:20;;;;;;;2.10;2.00;;;22.80;45.00;;;;;;4766084;30;20091;-72
2021/09/13 03:28:47;;;;;;;1.83;1.73;;;22.80;45.00;;;;;;4765698;30;20314;-72
2021/09/13 03:31:15;;;;;;;2.35;2.15;;;22.80;45.00;;;;;;4765369;30;20066;-71
2021/09/13 03:33:42;;;;;;;2.47;2.08;;;22.80;45.00;;;;;;4775729;30;20316;-72
2021/09/13 03:36:09;;;;;;;2.17;2.00;;;22.80;45.00;;;;;;4784328;29;20047;-71
2021/09/13 03:38:36;;;;;;;5.03;2.30;;;22.80;45.60;;;;;;4783785;29;20055;-70
2021/09/13 03:41:03;;;;;;;2.25;2.13;;;22.80;45.00;;;;;;4784225;29;20098;-72
2021/09/13 03:43:30;;;;;;;2.40;2.20;;;22.80;45.00;;;;;;4776018;29;20147;-72
2021/09/13 03:45:58;;;;;;;1.95;1.85;;;22.80;45.00;;;;;;4787373;29;20679;-72
2021/09/13 03:48:25;;;;;;;2.67;2.47;;;22.80;45.00;;;;;;4786966;29;20398;-72
2021/09/13 03:50:52;;;;;;;3.33;1.88;;;22.80;45.00;;;;;;4785587;29;20138;-72
2021/09/13 03:53:19;;;;;;;2.30;2.10;;;22.80;45.00;;;;;;4777982;29;20089;-72
2021/09/13 03:55:46;;;;;;;2.20;2.00;;;22.80;45.50;;;;;;4785434;29;20069;-72
2021/09/13 03:58:13;;;;;;;2.30;2.10;;;22.80;45.00;;;;;;4785655;29;20413;-72
2021/09/13 04:00:41;;;;;;;1.80;1.70;;;22.80;45.00;;;;;;4785795;29;20051;-72
2021/09/13 04:03:13;;;;;;;2.10;1.90;;;22.80;45.00;;;;;;4778490;29;20051;-71
2021/09/13 04:05:47;;;;;;;1.83;1.73;;;22.80;45.00;;;;;;4785760;29;20149;-72
2021/09/13 04:08:44;;;;;;;2.33;2.08;;;22.80;45.00;;;;;;4785452;29;20552;-72
2021/09/13 04:11:16;;;;;;;2.10;2.00;;;22.80;45.00;;;;;;4786051;29;20386;-71
2021/09/13 04:13:44;;;;;;;1.88;1.77;;;22.80;45.00;;;;;;4778205;29;20090;-72
2021/09/13 04:16:11;;;;;;;2.33;2.13;;;22.80;45.10;;;;;;4784626;30;20472;-72
2021/09/13 04:18:40;;;;;;;2.40;2.20;;;22.80;45.10;;;;;;4785555;29;20062;-72
2021/09/13 04:21:07;;;;;;;1.77;1.67;;;22.80;45.10;;;;;;4785051;29;20071;-72
2021/09/13 04:23:34;;;;;;;1.85;1.75;;;22.80;45.10;;;;;;4777424;29;20063;-69
2021/09/13 04:26:01;;;;;;;1.80;1.70;;;22.80;45.10;;;;;;4785804;29;20048;-72
2021/09/13 04:28:28;;;;;;;2.30;2.10;;;22.80;45.10;;;;;;4786318;29;20537;-71
2021/09/13 04:30:55;;;;;;;2.45;2.25;;;22.80;45.10;;;;;;4786323;29;20279;-72
2021/09/13 04:33:22;;;;;;;2.53;1.90;;;22.80;45.10;;;;;;4773680;29;20056;-71
2021/09/13 04:35:49;;;;;;;1.98;1.88;;;22.80;45.10;;;;;;4768670;30;20486;-72
2021/09/13 04:38:16;;;;;;;1.80;1.70;;;22.80;45.10;;;;;;4768413;30;20170;-72
2021/09/13 04:40:43;;;;;;;2.10;1.70;;;22.80;45.60;;;;;;4768295;30;20075;-72
2021/09/13 04:43:10;;;;;;;3.08;2.45;;;22.80;45.00;;;;;;4774091;30;20055;-71
2021/09/13 04:45:37;;;;;;;2.38;2.17;;;22.80;45.00;;;;;;4786240;29;20087;-72
2021/09/13 04:48:05;;;;;;;2.13;2.03;;;22.80;45.00;;;;;;4784096;30;20059;-72
2021/09/13 04:50:32;;;;;;;2.00;1.90;;;22.80;45.00;;;;;;4784895;29;20086;-72
2021/09/13 04:52:59;;;;;;;3.80;2.20;;;22.80;45.00;;;;;;4788117;29;20317;-72
2021/09/13 04:55:26;;;;;;;3.45;2.50;;;22.80;44.90;;;;;;4795076;29;20086;-72
2021/09/13 04:57:53;;;;;;;2.53;2.15;;;22.80;44.90;;;;;;4787723;29;20061;-71
2021/09/13 05:00:21;;;;;;;4.13;2.40;;;22.90;44.90;;;;;;4778300;30;20082;-72
2021/09/13 05:02:49;;;;;;;2.83;2.20;;;22.90;44.90;;;;;;4775400;29;20407;-68
2021/09/13 05:05:16;;;;;;;3.08;2.67;;;22.90;44.90;;;;;;4781275;29;20055;-72
2021/09/13 05:07:43;;;;;;;2.53;2.10;;;22.90;44.90;;;;;;4783456;29;20502;-72
2021/09/13 05:10:11;;;;;;;2.13;2.00;;;22.90;44.80;;;;;;4784622;29;20099;-71
2021/09/13 05:12:38;;;;;;;2.10;1.92;;;22.90;44.70;;;;;;4778941;29;20071;-72
2021/09/13 05:15:06;;;;;;;4.05;2.08;;;22.90;44.60;;;;;;4781214;29;20051;-71
2021/09/13 05:17:33;;;;;;;3.20;2.42;;;22.90;44.50;;;;;;4780272;29;20517;-72
2021/09/13 05:20:00;;;;;;;2.50;2.30;;;23.00;44.60;;;;;;4781741;29;20134;-71
2021/09/13 05:22:29;;;;;;;3.00;2.47;;;23.00;44.50;;;;;;4771539;29;20135;-69
2021/09/13 05:24:56;;;;;;;3.78;2.13;;;23.00;44.50;;;;;;4774206;29;20134;-72
2021/09/13 05:27:23;;;;;;;2.40;2.22;;;23.00;44.80;;;;;;4776831;29;20054;-72
2021/09/13 05:29:50;;;;;;;2.53;2.33;;;23.10;45.00;;;;;;4777396;29;20051;-73
2021/09/13 05:32:49;;;;;;;2.75;2.55;;;23.00;45.00;;;;;;4774380;29;20059;-70
2021/09/13 05:35:17;;;;;;;3.95;2.05;;;23.00;45.00;;;;;;4770900;30;20130;-76
2021/09/13 05:37:44;;;;;;;2.60;2.40;;;23.10;45.20;;;;;;4776768;29;20094;-70
2021/09/13 05:40:11;;;;;;;4.85;2.55;;;23.10;45.20;;;;;;4773005;30;20253;-72
2021/09/13 05:42:38;;;;;;;3.25;2.50;;;23.10;45.30;;;;;;4768548;29;20125;-72
2021/09/13 05:45:07;;;;;;;2.45;2.25;;;23.10;45.40;;;;;;4766214;29;20055;-72
2021/09/13 05:47:34;;;;;;;4.35;2.55;;;23.20;45.30;;;;;;4780100;29;20079;-72
2021/09/13 05:50:02;;;;;;;2.85;2.65;;;23.20;45.20;;;;;;4777433;29;20110;-72
2021/09/13 05:52:50;;;;;;;6.32;3.00;;;23.20;45.10;;;;;;4770487;29;20844;-72
2021/09/13 05:55:43;;;;;;;4.40;3.25;;;23.20;44.90;;;;;;4765645;29;20144;-69
2021/09/13 05:58:11;;;;;;;7.75;3.20;;;23.20;44.70;;;;;;4767722;29;20066;-70
2021/09/13 06:00:39;;;;;;;7.95;4.03;;;23.30;44.90;;;;;;4779435;29;20110;-69
2021/09/13 06:03:34;;;;;;;7.82;5.03;;;23.30;45.00;;;;;;4773285;29;20104;-69
2021/09/13 06:06:03;;;;;;;8.23;3.97;;;23.30;45.00;;;;;;4771650;29;20497;-72
2021/09/13 06:08:30;;;;;;;9.50;4.00;;;23.30;45.10;;;;;;4779887;29;20138;-71
2021/09/13 06:10:58;;;;;;;7.15;4.30;;;23.40;45.20;;;;;;4770720;29;20198;-68
2021/09/13 06:13:43;;;;;;;9.30;4.25;;;23.40;45.30;;;;;;4769437;29;20181;-71
2021/09/13 06:16:13;;;;;;;8.38;4.45;;;23.40;45.30;;;;;;4770488;29;20116;-68
2021/09/13 06:18:40;;;;;;;6.85;4.63;;;23.50;45.40;;;;;;4781585;29;20495;-67
2021/09/13 06:21:07;;;;;;;6.90;3.92;;;23.50;45.40;;;;;;4773873;29;20062;-65
2021/09/13 06:23:34;;;;;;;5.88;4.28;;;23.50;45.40;;;;;;4768116;29;20107;-75
2021/09/13 06:26:02;;;;;;;7.53;4.60;;;23.60;45.30;;;;;;4766563;29;20178;-74
2021/09/13 06:28:30;;;;;;;7.28;4.85;;;23.60;45.30;;;;;;4772440;29;20165;-74
2021/09/13 06:30:57;;;;;;;6.75;5.00;;;23.60;45.40;;;;;;4769149;29;20077;-72
2021/09/13 06:33:24;;;;;;;9.82;5.50;;;23.60;45.40;;;;;;4778896;29;20059;-71
2021/09/13 06:35:51;;;;;;;9.90;5.65;;;23.70;45.50;;;;;;4793192;29;20087;-70
2021/09/13 06:38:19;;;;;;;7.10;4.85;;;23.70;45.50;;;;;;4791695;29;20059;-72
2021/09/13 06:40:46;;;;;;;15.25;5.00;;;23.80;45.70;;;;;;4791370;29;20206;-72
2021/09/13 06:43:15;;;;;;;7.30;4.82;;;23.80;45.70;;;;;;4789982;29;20055;-67
2021/09/13 06:45:44;;;;;;;9.73;4.35;;;23.80;45.80;;;;;;4790537;29;20086;-66
2021/09/13 06:48:14;;;;;;;11.85;4.78;;;23.80;46.50;;;;;;4790925;29;20083;-70
2021/09/13 06:50:44;;;;;;;6.25;4.32;;;23.80;46.00;;;;;;4791807;29;20090;-72
2021/09/13 06:53:11;;;;;;;8.90;4.47;;;23.90;46.10;;;;;;4790370;29;20108;-69
2021/09/13 06:55:40;;;;;;;6.60;4.65;;;23.90;46.10;;;;;;4790617;29;20051;-70
2021/09/13 06:58:08;;;;;;;6.47;4.90;;;23.90;46.20;;;;;;4790972;29;20051;-70
2021/09/13 07:00:36;;;;;;;10.23;4.60;;;24.00;46.40;;;;;;4790740;29;20059;-69
2021/09/13 07:03:04;;;;;;;7.03;4.65;;;24.00;46.40;;;;;;4790026;29;20051;-72
2021/09/13 07:05:32;;;;;;;10.45;4.53;;;24.10;46.50;;;;;;4789284;30;20055;-73
2021/09/13 07:07:59;;;;;;;8.93;4.85;;;24.10;46.50;;;;;;4791373;29;20083;-70
2021/09/13 07:10:26;;;;;;;6.22;4.20;;;24.20;46.60;;;;;;4791944;29;20051;-72
2021/09/13 07:12:53;;;;;;;6.25;4.05;;;24.20;46.60;;;;;;4790557;29;20101;-72
2021/09/13 07:15:21;;;;;;;5.25;4.47;;;24.30;46.60;;;;;;4790885;29;20114;-69
2021/09/13 07:17:48;;;;;;;6.38;4.18;;;24.30;46.80;;;;;;4791227;29;20055;-69
2021/09/13 07:20:15;;;;;;;6.70;4.07;;;24.30;47.00;;;;;;4794917;29;20062;-68
2021/09/13 07:22:43;;;;;;;12.60;4.68;;;24.30;47.10;;;;;;4793721;29;20542;-68
2021/09/13 07:25:11;;;;;;;7.45;4.38;;;24.40;47.20;;;;;;4794328;29;20094;-67
2021/09/13 07:27:40;;;;;;;9.68;4.22;;;24.40;47.30;;;;;;4794647;29;20344;-71
2021/09/13 07:30:08;;;;;;;12.63;5.13;;;24.50;47.30;;;;;;4795899;29;20123;-68
2021/09/13 07:32:36;;;;;;;6.40;4.07;;;24.50;47.30;;;;;;4794716;29;20104;-69
2021/09/13 07:35:06;;;;;;;9.13;4.45;;;24.60;47.40;;;;;;4794892;29;20065;-68
2021/09/13 07:37:34;;;;;;;5.45;4.40;;;24.60;47.40;;;;;;4794283;29;20413;-71
2021/09/13 07:40:03;;;;;;;7.13;3.88;;;24.60;47.30;;;;;;4793969;29;20146;-66
2021/09/13 07:42:30;;;;;;;10.88;4.00;;;24.60;47.20;;;;;;4793226;29;20578;-64
2021/09/13 07:44:58;;;;;;;4.13;3.72;;;24.70;47.20;;;;;;4792605;30;20155;-63
2021/09/13 07:47:25;;;;;;;7.00;4.28;;;24.70;47.30;;;;;;4794132;29;20047;-66
2021/09/13 07:49:52;;;;;;;6.80;4.32;;;24.80;47.50;;;;;;4794229;29;20102;-68
2021/09/13 07:52:20;;;;;;;4.95;3.95;;;24.80;47.20;;;;;;4792977;29;20557;-63
2021/09/13 07:54:47;;;;;;;4.10;3.70;;;24.80;47.20;;;;;;4793390;29;20182;-67
2021/09/13 07:57:14;;;;;;;4.20;3.67;;;24.90;47.20;;;;;;4793579;29;20165;-67
2021/09/13 07:59:41;;;;;;;5.75;4.30;;;24.90;47.20;;;;;;4792590;30;20055;-73
2021/09/13 08:02:09;;;;;;;4.70;3.72;;;24.90;47.40;;;;;;4793210;29;20536;-73
2021/09/13 08:04:37;;;;;;;4.30;3.90;;;24.90;47.50;;;;;;4793727;29;20061;-72
2021/09/13 08:07:04;;;;;;;4.70;4.28;;;24.90;47.50;;;;;;4793708;29;20078;-73
2021/09/13 08:09:31;;;;;;;6.53;3.85;;;24.90;47.60;;;;;;4793133;29;20065;-72
2021/09/13 08:12:00;;;;;;;4.03;3.72;;;24.90;47.50;;;;;;4793268;29;20063;-71
2021/09/13 08:14:27;;;;;;;4.38;3.58;;;24.90;47.60;;;;;;4792923;29;20104;-73
2021/09/13 08:16:54;;;;;;;4.97;4.25;;;24.90;47.70;;;;;;4793587;29;20061;-72
2021/09/13 08:19:22;;;;;;;5.45;3.85;;;24.90;47.80;;;;;;4792955;29;20062;-71
2021/09/13 08:21:49;;;;;;;3.38;3.10;;;24.90;47.70;;;;;;4792627;29;20055;-69
2021/09/13 08:24:16;;;;;;;5.68;4.35;;;24.90;47.70;;;;;;4792567;29;20055;-71
2021/09/13 08:26:43;;;;;;;3.90;3.60;;;24.90;47.90;;;;;;4793190;29;20055;-71
2021/09/13 08:29:14;;;;;;;4.32;3.92;;;24.90;48.00;;;;;;4792973;29;20063;-69
2021/09/13 08:31:58;;;;;;;4.75;3.85;;;24.90;48.00;;;;;;4791803;29;20097;-69
2021/09/13 08:34:31;;;;;;;4.10;3.70;;;24.90;48.00;;;;;;4774492;30;20064;-71
2021/09/13 08:36:58;;;;;;;7.47;3.88;;;24.90;48.20;;;;;;4775561;30;20420;-68
2021/09/13 08:39:26;;;;;;;5.38;3.88;;;24.90;48.10;;;;;;4775794;30;20117;-69
2021/09/13 08:41:53;;;;;;;6.13;3.78;;;25.00;48.20;;;;;;4775889;30;20090;-67
2021/09/13 08:44:20;;;;;;;4.13;3.60;;;25.00;48.20;;;;;;4776963;30;20060;-64
2021/09/13 08:46:52;;;;;;;10.20;4.45;;;25.10;48.20;;;;;;4776767;30;20493;-72
2021/09/13 08:49:33;;;;;;;5.40;3.97;;;25.10;48.10;;;;;;4773507;29;20112;-66
2021/09/13 08:52:03;;;;;;;4.85;3.97;;;25.10;48.70;;;;;;4776685;30;20116;-68
2021/09/13 08:54:37;;;;;;;4.95;4.20;;;25.20;48.10;;;;;;4792906;30;20474;-65
2021/09/13 08:57:06;;;;;;;4.50;3.80;;;25.20;48.00;;;;;;4794210;29;20060;-64
2021/09/13 08:59:38;;;;;;;7.47;3.53;;;25.30;47.90;;;;;;4778486;29;20077;-64
2021/09/13 09:02:06;;;;;;;4.05;3.65;;;25.30;47.80;;;;;;4786285;30;20090;-65
2021/09/13 09:04:55;;;;;;;4.93;3.50;;;25.40;47.90;;;;;;4774923;29;20055;-65
2021/09/13 09:07:25;;;;;;;5.13;3.90;;;25.40;47.80;;;;;;4779378;30;20051;-72
2021/09/13 09:10:23;;;;;;;4.32;3.65;;;25.40;47.90;;;;;;4780586;29;20120;-71
2021/09/13 09:13:15;;;;;;;4.80;3.65;;;25.40;47.90;;;;;;4771495;29;20139;-71
2021/09/13 09:16:15;;;;;;;6.43;3.92;;;25.40;47.80;;;;;;4775540;30;20053;-68
2021/09/13 09:18:48;;;;;;;6.45;4.38;;;25.40;47.60;;;;;;4775390;29;20089;-69
2021/09/13 09:21:29;;;;;;;4.63;4.22;;;25.30;47.10;;;;;;4775488;29;20397;-71
2021/09/13 09:24:01;;;;;;;6.90;4.32;;;25.30;46.90;;;;;;4777139;29;20067;-68
2021/09/13 09:26:30;;;;;;;5.35;4.15;;;25.40;46.80;;;;;;4774022;29;20043;-67
2021/09/13 09:29:00;;;;;;;5.60;5.00;;;25.30;46.60;;;;;;4784145;29;20120;-73
2021/09/13 09:31:52;;;;;;;5.10;4.60;;;25.30;46.50;;;;;;4783119;29;20134;-69
2021/09/13 09:34:23;;;;;;;10.02;4.13;;;25.30;46.40;;;;;;4771918;29;20489;-69
2021/09/13 09:37:03;;;;;;;;;;;25.30;46.40;;;;;;4783766;29;20071;-68
2021/09/13 09:39:40;;;;;;;4.93;3.90;;;25.30;46.10;;;;;;4779042;29;19934;-71
2021/09/13 09:42:10;;;;;;;5.28;4.78;;;25.40;46.10;;;;;;4778902;29;20145;-71
2021/09/13 09:44:41;;;;;;;5.93;4.78;;;25.40;46.10;;;;;;4783251;30;20048;-69
2021/09/13 09:47:11;;;;;;;6.00;4.65;;;25.40;46.30;;;;;;4785447;29;20122;-74
2021/09/13 09:49:43;;;;;;;5.00;4.60;;;25.40;46.20;;;;;;4780583;29;20142;-72
2021/09/13 09:52:10;;;;;;;5.60;4.40;;;25.50;46.70;;;;;;4776326;29;20051;-73
2021/09/13 09:54:40;;;;;;;10.65;4.10;;;25.50;46.60;;;;;;4770647;29;20069;-72
2021/09/13 09:57:09;;;;;;;6.75;4.15;;;25.60;46.70;;;;;;4780675;29;20078;-73
2021/09/13 09:59:38;;;;;;;6.75;4.68;;;25.70;46.90;;;;;;4779672;29;20090;-72
2021/09/13 10:02:53;;;;;;;7.93;4.38;;;25.70;46.50;;;;;;4775218;29;20085;-73
2021/09/13 10:05:24;;;;;;;8.95;4.53;;;25.80;46.40;;;;;;4777458;29;20043;-71
2021/09/13 10:07:51;;;;;;;6.55;4.22;;;25.80;46.00;;;;;;4780034;29;20138;-69
2021/09/13 10:14:02;;;;;;;5.28;4.30;;;25.90;45.10;;;;;;4780600;29;20108;-71
2021/09/13 10:16:31;;;;;;;5.68;4.50;;;26.00;45.10;;;;;;4786284;29;20051;-72
2021/09/13 10:19:00;;;;;;;6.55;3.90;;;26.00;45.30;;;;;;4784701;29;20057;-71
2021/09/13 10:25:19;;;;;;;4.80;3.92;;;26.00;45.20;;;;;;4778976;29;20051;-70
2021/09/13 10:28:04;;;;;;;7.05;4.00;;;26.10;45.10;;;;;;4784690;29;20055;-70
2021/09/13 10:30:47;;;;;;;7.43;4.25;;;26.10;45.10;;;;;;4781427;30;20071;-73
2021/09/13 10:33:22;;;;;;;5.57;4.00;;;26.10;44.90;;;;;;4796568;29;20057;-71
2021/09/13 10:35:58;;;;;;;6.05;4.05;;;26.20;44.80;;;;;;4816090;29;20059;-72
2021/09/13 10:38:47;;;;;;;5.78;4.20;;;26.30;44.70;;;;;;4817985;29;20050;-71
2021/09/13 10:41:59;;;;;;;4.22;3.80;;;26.30;44.70;;;;;;4816414;29;20058;-70
2021/09/13 10:44:33;;;;;;;6.70;4.30;;;26.40;44.50;;;;;;4788714;30;20103;-71
2021/09/13 10:47:03;;;;;;;7.07;3.92;;;26.40;44.20;;;;;;4798010;29;20055;-72
2021/09/13 10:49:31;;;;;;;4.28;3.88;;;26.50;44.20;;;;;;4793169;29;20108;-69
2021/09/13 10:52:57;;;;;;;6.97;3.80;;;26.60;44.00;;;;;;4791694;29;20114;-71
2021/09/13 10:55:37;;;;;;;4.53;4.13;;;26.60;44.00;;;;;;4781309;29;20160;-70
2021/09/13 10:58:16;;;;;;;5.10;4.07;;;26.70;44.20;;;;;;4780924;29;20144;-70
2021/09/13 11:00:55;;;;;;;4.70;3.97;;;26.80;44.30;;;;;;4777714;29;20246;-69
2021/09/13 11:06:41;;;;;;;4.82;3.95;;;26.90;44.20;;;;;;4772652;29;20577;-67
2021/09/13 11:09:10;;;;;;;4.97;4.00;;;26.90;44.20;;;;;;4777846;30;20620;-67
2021/09/13 11:11:56;;;;;;;4.53;4.13;;;26.90;44.30;;;;;;4778133;29;20039;-67
2021/09/13 11:14:25;;;;;;;5.38;4.07;;;26.80;44.10;;;;;;4770522;30;20055;-67
2021/09/13 11:17:01;;;;;;;7.70;4.57;;;26.80;43.80;;;;;;4774845;29;20538;-71
2021/09/13 11:19:29;;;;;;;7.88;4.38;;;26.80;43.80;;;;;;4776185;29;20055;-70
2021/09/13 11:22:05;;;;;;;4.72;4.00;;;26.80;43.80;;;;;;4773550;29;20079;-72
2021/09/13 11:24:39;;;;;;;4.40;4.00;;;26.80;43.90;;;;;;4771589;29;20083;-69
2021/09/13 11:27:11;;;;;;;6.07;3.97;;;26.80;43.80;;;;;;4779354;29;20057;-69
2021/09/13 11:29:41;;;;;;;5.60;5.10;;;26.80;43.70;;;;;;4777014;30;20086;-79
2021/09/13 11:32:39;;;;;;;4.25;3.85;;;26.80;43.60;;;;;;4770416;30;20053;-71
2021/09/13 11:35:13;;;;;;;4.55;4.15;;;26.70;43.40;;;;;;4770680;29;20060;-70
2021/09/13 11:37:41;;;;;;;6.10;4.18;;;26.80;43.50;;;;;;4778643;29;20470;-72
2021/09/13 11:40:28;;;;;;;4.57;3.72;;;26.80;43.10;;;;;;4778267;29;20055;-69
2021/09/13 11:43:33;;;;;;;6.50;4.28;;;26.80;43.10;;;;;;4773584;29;20051;-68
2021/09/13 11:46:04;;;;;;;6.60;4.20;;;26.70;43.30;;;;;;4772954;29;20074;-68
2021/09/13 11:48:31;;;;;;;6.07;4.72;;;26.70;43.60;;;;;;4783104;29;20047;-72
2021/09/13 11:51:02;;;;;;;11.95;6.47;;;26.70;43.60;;;;;;4780730;29;20685;-71
2021/09/13 11:53:29;;;;;;;6.68;5.25;;;26.70;43.50;;;;;;4777842;29;20139;-72
2021/09/13 11:56:28;;;;;;;11.20;4.50;;;26.70;43.40;;;;;;4779953;29;20060;-72
2021/09/13 12:13:46;;;;;;;5.78;3.90;;;26.80;41.70;;;;;;5565912;24;20039;-72
2021/09/13 12:16:21;;;;;;;6.88;4.03;;;26.80;41.40;;;;;;4785224;30;20059;-71
2021/09/13 12:18:49;;;;;;;3.72;3.40;;;26.80;41.30;;;;;;4784145;29;20039;-76
2021/09/13 12:21:17;;;;;;;4.07;3.60;;;26.80;41.50;;;;;;4778420;29;20145;-71
2021/09/13 12:23:54;;;;;;;6.20;4.15;;;26.80;41.50;;;;;;4780170;29;20087;-68
2021/09/13 12:26:26;;;;;;;6.68;3.70;;;26.80;41.50;;;;;;4776137;29;20142;-65
2021/09/13 12:28:53;;;;;;;5.38;3.92;;;26.90;41.90;;;;;;4781718;29;20897;-67
2021/09/13 12:31:27;;;;;;;4.00;3.60;;;26.90;42.20;;;;;;4779572;29;20078;-70
2021/09/13 12:33:56;;;;;;;5.47;3.80;;;26.90;42.30;;;;;;4780553;29;20050;-71
2021/09/13 12:36:25;;;;;;;5.78;3.50;;;26.90;42.30;;;;;;4812251;29;20055;-67
2021/09/13 12:38:55;;;;;;;4.70;3.10;;;26.90;42.40;;;;;;4811538;29;20083;-68
2021/09/13 12:41:31;;;;;;;4.13;3.45;;;26.90;42.70;;;;;;4811847;29;20549;-65
2021/09/13 12:43:58;;;;;;;3.65;3.35;;;26.90;42.90;;;;;;4811682;29;20061;-69
2021/09/13 12:46:28;;;;;;;;;;;26.90;42.90;;;;;;4811851;29;20117;-71
2021/09/13 12:49:01;;;;;;;6.13;3.47;;;26.90;42.90;;;;;;4811600;29;19925;-68
2021/09/13 12:51:28;;;;;;;4.55;3.42;;;26.90;43.40;;;;;;4811241;29;20055;-70
2021/09/13 12:54:00;;;;;;;5.28;3.42;;;26.90;43.80;;;;;;4810483;29;20093;-65
2021/09/13 12:56:28;;;;;;;5.38;3.08;;;26.90;44.20;;;;;;4811422;29;20513;-70
2021/09/13 12:59:10;;;;;;;5.20;3.40;;;26.90;44.60;;;;;;4811194;29;20089;-70
2021/09/13 13:01:53;;;;;;;7.10;3.45;;;26.90;44.80;;;;;;4776770;29;20061;-71
2021/09/13 13:04:34;;;;;;;3.80;2.85;;;26.90;44.20;;;;;;4770775;29;20048;-67
2021/09/13 13:07:07;;;;;;;3.90;3.60;;;26.90;43.80;;;;;;4780270;29;20663;-67
2021/09/13 13:09:34;;;;;;;4.28;2.88;;;26.90;43.70;;;;;;4780502;29;20168;-70
2021/09/13 13:12:01;;;;;;;3.13;2.92;;;27.00;43.70;;;;;;4777956;29;20054;-68
2021/09/13 13:14:28;;;;;;;3.80;3.42;;;26.90;43.40;;;;;;4770760;29;20065;-72
2021/09/13 13:16:56;;;;;;;3.67;3.03;;;26.90;43.40;;;;;;4781473;29;20247;-65
2021/09/13 13:19:23;;;;;;;4.97;3.67;;;26.90;43.30;;;;;;4777847;29;20055;-68
2021/09/13 13:22:29;;;;;;;3.20;2.83;;;26.90;43.60;;;;;;4782552;29;20271;-70
2021/09/13 13:25:06;;;;;;;3.60;3.30;;;26.90;43.50;;;;;;4768623;29;20053;-72
2021/09/13 13:27:33;;;;;;;3.53;3.17;;;27.00;43.70;;;;;;4785814;29;20075;-69
2021/09/13 13:30:03;;;;;;;4.05;3.20;;;26.90;43.50;;;;;;4785019;29;20555;-70